Terminal Aerodrome Forecast
Issued by NWS

Home | Current Version | Previous Version | Text Only | Print | Product List | Glossary On
Versions: 1 2 3 4 5 6 7 8 9 10 11 12 13 14 15 16 17 18 19 20 21
000
FTUS43 KDVN 211121
TAFCID
TAF
KCID 211121Z 2112/2212 17012G20KT P6SM BKN150 WS020/21045KT
     FM211500 17015G21KT P6SM BKN060
     FM220000 17015G21KT P6SM VCSH OVC040 PROB30 2200/2204 4SM TSRA
      OVC015CB
     FM220700 28008KT P6SM BKN010=

USA.gov is the U.S. government's official web portal to all federal, state and local government web resources and services.